createdAt,value
2023-02-17T07:55:22.439Z,8.45
2023-02-17T08:07:16.897Z,8.80
2023-02-17T08:10:03.051Z,8.20
2023-02-17T08:12:48.906Z,8.73
2023-02-17T08:15:16.466Z,9.88
2023-02-17T08:17:44.445Z,10.65
2023-02-17T08:20:13.539Z,9.85
2023-02-17T08:22:40.898Z,9.00
2023-02-17T08:25:08.761Z,9.23
2023-02-17T08:27:36.125Z,9.02
2023-02-17T08:30:04.083Z,8.95
2023-02-17T08:32:31.583Z,8.18
2023-02-17T08:34:59.217Z,8.10
2023-02-17T08:37:26.864Z,8.00
2023-02-17T08:39:54.189Z,8.05
2023-02-17T08:42:21.971Z,7.90
2023-02-17T08:44:49.274Z,6.85
2023-02-17T08:47:16.653Z,7.05
2023-02-17T08:49:44.069Z,7.63
2023-02-17T08:52:11.408Z,6.43
2023-02-17T08:54:39.355Z,7.20
2023-02-17T08:57:07.540Z,7.72
2023-02-17T08:59:35.142Z,7.55
2023-02-17T09:02:02.652Z,8.02
2023-02-17T09:04:30.070Z,7.63
2023-02-17T09:06:58.340Z,8.15
2023-02-17T09:09:27.034Z,7.47
2023-02-17T09:11:58.352Z,7.63
2023-02-17T09:14:26.414Z,7.75
2023-02-17T09:16:55.485Z,7.88
2023-02-17T09:19:23.683Z,8.05
2023-02-17T09:21:51.128Z,7.97
2023-02-17T09:24:19.007Z,9.23
2023-02-17T09:26:46.347Z,8.48
2023-02-17T09:29:13.738Z,8.20
2023-02-17T09:31:41.385Z,7.57
2023-02-17T09:34:08.870Z,7.80
2023-02-17T09:36:42.090Z,7.57
2023-02-17T09:39:12.408Z,7.70
2023-02-17T09:41:52.401Z,8.88
2023-02-17T09:44:40.796Z,8.00
2023-02-17T09:47:26.731Z,8.10
2023-02-17T09:50:21.867Z,7.90
2023-02-17T09:53:42.914Z,7.60
2023-02-17T09:56:28.227Z,7.82
2023-02-17T09:59:04.501Z,9.10
2023-02-17T10:01:36.044Z,7.57
2023-02-17T10:04:33.590Z,7.20
2023-02-17T10:07:43.997Z,8.05
2023-02-17T10:10:41.697Z,6.75
2023-02-17T10:13:13.161Z,7.72
2023-02-17T10:15:48.474Z,9.02
2023-02-17T10:18:47.373Z,8.45
2023-02-17T10:21:39.307Z,6.55
2023-02-17T10:24:07.179Z,7.15
2023-02-17T10:27:42.450Z,7.90
2023-02-17T10:31:04.938Z,6.90
2023-02-17T10:33:38.809Z,6.88
2023-02-17T10:37:01.393Z,7.68
2023-02-17T10:39:57.100Z,7.50
2023-02-17T10:42:35.971Z,7.85
2023-02-17T10:45:37.408Z,7.40
2023-02-17T10:48:21.313Z,7.10
2023-02-17T10:50:49.957Z,8.25
2023-02-17T10:53:25.206Z,7.70
2023-02-17T10:56:40.096Z,7.15
2023-02-17T10:59:50.442Z,7.47
2023-02-17T11:02:41.267Z,7.20
2023-02-17T11:07:48.325Z,7.18
2023-02-17T11:10:40.857Z,8.00
2023-02-17T11:13:51.330Z,7.70
2023-02-17T11:17:00.761Z,7.50
2023-02-17T11:19:35.235Z,7.47
2023-02-17T11:22:25.903Z,6.43
2023-02-17T11:25:06.521Z,7.28
2023-02-17T11:30:19.228Z,7.35
2023-02-17T11:32:48.055Z,6.30
2023-02-17T11:35:37.046Z,6.95
2023-02-17T11:38:23.295Z,7.18
2023-02-17T11:41:02.347Z,6.40
2023-02-17T11:43:33.026Z,6.55
2023-02-17T11:46:50.123Z,6.35
2023-02-17T11:50:13.811Z,7.25
2023-02-17T11:53:46.620Z,6.97
2023-02-17T11:56:29.538Z,7.25
2023-02-17T11:59:12.158Z,7.50
2023-02-17T12:02:36.315Z,7.50
2023-02-17T12:05:35.554Z,7.75
2023-02-17T12:08:40.340Z,8.65
2023-02-17T12:12:10.566Z,8.35
2023-02-17T12:15:27.382Z,7.95
2023-02-17T12:18:45.896Z,7.97
2023-02-17T12:22:07.341Z,8.57
2023-02-17T12:25:22.319Z,7.97
2023-02-17T12:28:50.561Z,6.78
2023-02-17T12:32:11.275Z,6.95
2023-02-17T12:37:41.955Z,5.95
2023-02-17T12:41:05.875Z,6.65
2023-02-17T12:43:57.005Z,6.25
2023-02-17T12:46:45.956Z,6.70
2023-02-17T12:49:42.877Z,6.75
2023-02-17T12:52:40.497Z,6.95
2023-02-17T12:55:31.893Z,6.80
2023-02-17T12:58:15.907Z,6.40
2023-02-17T13:01:10.664Z,7.00
2023-02-17T13:03:38.424Z,5.72
2023-02-17T13:06:41.360Z,6.40
2023-02-17T13:09:40.512Z,6.40
2023-02-17T13:12:22.739Z,6.60
2023-02-17T13:15:26.554Z,6.13
2023-02-17T13:18:05.031Z,6.22
2023-02-17T13:20:59.820Z,5.65
2023-02-17T13:23:43.336Z,5.18
2023-02-17T13:26:22.525Z,5.50
2023-02-17T13:28:54.646Z,5.22
2023-02-17T13:31:26.920Z,5.60
2023-02-17T13:33:58.719Z,4.95
2023-02-17T13:36:28.790Z,4.70
2023-02-17T13:39:26.605Z,5.50
2023-02-17T13:42:00.307Z,5.13
2023-02-17T13:44:41.052Z,4.70
2023-02-17T13:47:27.831Z,4.78
2023-02-17T13:49:57.532Z,4.18
2023-02-17T13:52:31.207Z,4.50
2023-02-17T13:55:06.579Z,4.93
2023-02-17T13:57:37.644Z,4.38
2023-02-17T14:00:28.344Z,4.50
2023-02-17T14:05:58.434Z,4.60
2023-02-17T14:08:43.199Z,4.45
2023-02-17T14:11:20.479Z,4.22
2023-02-17T14:13:52.137Z,3.50
2023-02-17T14:16:41.658Z,3.42
2023-02-17T14:19:19.358Z,4.07
2023-02-17T14:22:04.309Z,3.67
2023-02-17T14:24:38.616Z,4.40
2023-02-17T14:27:14.049Z,3.55
2023-02-17T14:29:48.521Z,3.83
2023-02-17T14:32:40.031Z,3.35
2023-02-17T14:35:23.908Z,3.95
2023-02-17T14:37:51.408Z,3.72
2023-02-17T14:40:24.893Z,3.47
2023-02-17T14:42:52.692Z,3.35
2023-02-17T14:45:20.460Z,4.07
2023-02-17T14:47:48.362Z,3.80
2023-02-17T14:50:19.116Z,3.60
2023-02-17T14:52:49.565Z,3.75
2023-02-17T14:55:43.425Z,3.70
2023-02-17T14:58:23.958Z,3.95
2023-02-17T15:03:19.215Z,3.53
2023-02-17T15:05:47.036Z,3.75
2023-02-17T15:08:29.571Z,3.47
2023-02-17T15:10:57.026Z,3.88
2023-02-17T15:13:24.342Z,3.35
2023-02-17T15:15:51.722Z,3.25
2023-02-17T15:18:21.244Z,3.15
2023-02-17T15:20:51.582Z,3.92
2023-02-17T15:23:25.549Z,3.83
2023-02-17T15:25:54.830Z,3.17
2023-02-17T15:28:22.744Z,3.70
2023-02-17T15:30:55.788Z,4.28
2023-02-17T15:33:24.826Z,3.92
2023-02-17T15:35:54.585Z,3.72
2023-02-17T15:38:24.345Z,3.58
2023-02-17T15:40:51.853Z,3.67
2023-02-17T15:43:22.825Z,3.83
2023-02-17T15:45:50.202Z,5.05
2023-02-17T15:48:35.666Z,3.22
2023-02-17T15:51:03.072Z,3.78
2023-02-17T15:53:33.129Z,3.60
2023-02-17T15:56:03.227Z,3.58
2023-02-17T15:58:31.161Z,4.63
2023-02-17T16:01:04.092Z,3.55
2023-02-17T16:03:31.588Z,3.63
2023-02-17T16:05:58.908Z,3.63
2023-02-17T16:08:26.236Z,3.55
2023-02-17T16:10:53.840Z,3.20
2023-02-17T16:13:24.966Z,4.43
2023-02-17T16:15:59.792Z,2.88
2023-02-17T16:18:27.177Z,4.35
2023-02-17T16:20:54.465Z,4.03
2023-02-17T16:23:21.803Z,3.50
2023-02-17T16:25:50.308Z,3.78
2023-02-17T16:28:22.457Z,3.63
2023-02-17T16:30:50.819Z,3.50
2023-02-17T16:33:19.543Z,3.95
2023-02-17T16:35:49.745Z,3.67
2023-02-17T16:38:24.335Z,3.75
2023-02-17T16:40:53.439Z,3.45
2023-02-17T16:43:30.451Z,4.28
2023-02-17T16:46:03.217Z,3.70
2023-02-17T16:48:35.983Z,4.40
2023-02-17T16:51:03.387Z,4.18
2023-02-17T16:53:30.851Z,4.18
2023-02-17T16:55:58.262Z,3.58
2023-02-17T16:58:27.120Z,3.58
2023-02-17T17:00:56.204Z,3.50
2023-02-17T17:03:23.625Z,3.53
2023-02-17T17:05:52.576Z,3.58
2023-02-17T17:08:21.904Z,3.63
2023-02-17T17:10:49.723Z,3.50
2023-02-17T17:13:17.236Z,3.15
2023-02-17T17:15:46.460Z,3.92
2023-02-17T17:18:21.560Z,3.63
2023-02-17T17:20:49.919Z,3.65
2023-02-17T17:23:18.809Z,3.70
2023-02-17T17:25:47.331Z,3.88
2023-02-17T17:28:20.053Z,3.33
2023-02-17T17:30:49.333Z,3.60
2023-02-17T17:33:17.286Z,3.97
2023-02-17T17:35:44.627Z,3.90
2023-02-17T17:38:15.839Z,4.20
2023-02-17T17:40:49.081Z,3.40
2023-02-17T17:43:23.354Z,4.20
2023-02-17T17:45:52.452Z,3.88
2023-02-17T17:48:20.233Z,3.92
2023-02-17T17:50:49.945Z,4.50
2023-02-17T17:53:17.359Z,4.35
2023-02-17T17:55:47.569Z,4.28
2023-02-17T17:58:16.264Z,4.18
2023-02-17T18:00:43.569Z,4.05
2023-02-17T18:03:10.875Z,4.65
2023-02-17T18:05:38.335Z,3.88
2023-02-17T18:08:07.536Z,5.43
2023-02-17T18:10:35.065Z,3.58
2023-02-17T18:13:02.374Z,4.38
2023-02-17T18:15:29.848Z,4.43
2023-02-17T18:17:57.497Z,4.28
2023-02-17T18:20:24.828Z,4.68
2023-02-17T18:22:52.109Z,4.13
2023-02-17T18:25:19.544Z,4.32
2023-02-17T18:27:48.114Z,4.10
2023-02-17T18:30:21.375Z,3.90
2023-02-17T18:32:49.892Z,4.13
2023-02-17T18:35:18.194Z,5.25
2023-02-17T18:37:46.331Z,4.65
2023-02-17T18:40:19.125Z,4.60
2023-02-17T18:42:48.222Z,4.68
2023-02-17T18:45:17.619Z,4.00
2023-02-17T18:47:46.251Z,4.70
2023-02-17T18:50:15.644Z,4.43
2023-02-17T18:52:44.268Z,4.30
2023-02-17T18:55:12.121Z,4.68
2023-02-17T18:57:39.622Z,4.80
2023-02-17T19:00:13.600Z,5.03
2023-02-17T19:02:41.588Z,4.78
2023-02-17T19:05:11.727Z,4.95
2023-02-17T19:07:39.053Z,4.85
2023-02-17T19:10:07.890Z,5.90
2023-02-17T19:12:35.558Z,5.43
2023-02-17T19:15:02.992Z,6.20
2023-02-17T19:17:31.163Z,5.65
2023-02-17T19:19:58.674Z,6.22
2023-02-17T19:22:26.034Z,5.65
2023-02-17T19:24:55.315Z,5.47
2023-02-17T19:27:22.785Z,5.10
2023-02-17T19:29:50.096Z,4.72
2023-02-17T19:32:17.483Z,5.60
2023-02-17T19:34:44.838Z,5.13
2023-02-17T19:37:12.405Z,5.70
2023-02-17T19:39:40.038Z,5.18
2023-02-17T19:42:08.134Z,6.07
2023-02-17T19:44:35.546Z,5.93
2023-02-17T19:47:02.867Z,5.68
2023-02-17T19:49:30.155Z,5.22
2023-02-17T19:51:57.473Z,5.35
2023-02-17T19:54:24.784Z,5.78
2023-02-17T19:56:52.512Z,5.90
2023-02-17T19:59:19.979Z,5.03
2023-02-17T20:01:47.449Z,5.70
2023-02-17T20:04:14.918Z,6.22
2023-02-17T20:06:47.946Z,5.43
2023-02-17T20:09:22.546Z,5.75
2023-02-17T20:11:53.145Z,6.22
2023-02-17T20:16:49.648Z,6.22
2023-02-17T20:19:17.394Z,5.88
2023-02-17T20:21:45.826Z,5.72
2023-02-17T20:24:14.482Z,6.05
2023-02-17T20:26:46.761Z,6.95
2023-02-17T20:29:15.242Z,7.05
2023-02-17T20:31:43.471Z,7.30
2023-02-17T20:34:39.354Z,8.60
2023-02-17T20:37:08.838Z,8.00
2023-02-17T20:39:38.611Z,8.00
2023-02-17T20:42:06.193Z,8.40
2023-02-17T20:44:33.851Z,7.43
